Chadstone Weather > Observations for 21/09/20

Select Day:



Observations
Time Temp Hum DP Wind Gust Dir Rain >9am Press
C % C kph kph mm hPa
00:00 19.8 70 14.2 15.6 30.6 N 0.0 1010.4
00:10 20.0 68 13.9 19.4 39.2 NNW 0.0 1010.3
00:20 20.0 68 13.9 17.0 31.7 N 0.0 1010.1
00:30 20.1 68 14.0 15.5 30.6 NNW 0.0 1010.2
00:40 20.2 68 14.1 14.7 34.2 N 0.0 1010.2
00:50 20.4 67 14.1 17.5 40.3 N 0.0 1009.9
01:00 20.5 66 13.9 19.4 33.1 N 0.0 1009.9
01:10 20.5 66 13.9 18.0 35.6 NNE 0.0 1010.0
01:20 20.6 65 13.8 16.8 34.2 N 0.0 1009.8
01:30 20.6 65 13.8 19.4 36.7 NNE 0.0 1010.2
01:40 20.5 65 13.7 15.6 33.1 N 0.0 1011.2
01:50 20.4 65 13.6 13.6 30.6 NNW 0.0 1010.3
02:00 20.2 66 13.7 14.0 27.0 N 0.0 1009.3
02:10 20.1 66 13.6 12.4 24.5 N 0.0 1009.2
02:20 20.0 66 13.5 14.1 24.5 N 0.0 1008.8
02:30 19.9 68 13.8 10.9 25.6 N 0.0 1009.1
02:40 19.8 68 13.7 13.3 24.5 N 0.0 1008.3
02:50 19.7 68 13.6 14.6 29.5 NNW 0.0 1008.4
03:00 19.8 67 13.5 17.9 30.6 N 0.0 1008.6
03:10 19.9 67 13.6 14.4 33.1 N 0.0 1008.3
03:20 19.9 66 13.4 15.2 28.1 NNE 0.0 1008.6
03:30 19.8 66 13.3 14.3 29.5 NNW 0.0 1008.6
03:40 19.8 66 13.3 15.3 29.5 N 0.0 1008.4
03:50 19.8 67 13.5 14.8 28.1 N 0.0 1008.5
04:00 19.7 67 13.4 12.6 25.6 NW 0.0 1008.8
04:10 19.5 67 13.2 6.7 19.4 NW 0.0 1008.9
04:20 19.4 67 13.1 12.9 24.5 NW 0.0 1009.7
04:30 19.3 68 13.3 14.5 34.2 NW 0.0 1009.6
04:40 19.1 68 13.1 12.4 25.6 NW 0.0 1009.3
04:50 18.8 72 13.7 13.0 24.5 NNW 0.0 1011.0
05:00 18.5 74 13.8 11.6 24.5 NNW 0.0 1011.1
05:10 18.3 75 13.8 11.7 24.5 WNW 0.0 1010.5
05:20 18.2 75 13.7 10.4 24.5 NW 0.0 1011.2
05:30 18.0 76 13.7 10.7 22.0 NW 0.0 1010.9
05:40 17.9 76 13.6 7.9 19.4 NW 0.0 1010.7
05:50 17.9 76 13.6 9.7 19.4 WNW 0.0 1010.8
06:00 17.8 76 13.5 6.5 17.3 NW 0.0 1010.3
06:10 17.6 74 12.9 6.0 11.2 W 0.0 1010.6
06:20 17.5 72 12.4 3.9 9.7 W 0.0 1010.3
06:30 17.5 72 12.4 2.4 8.6 NW 0.0 1010.3
06:40 17.4 72 12.3 2.7 7.2 WSW 0.0 1010.8
06:50 17.4 72 12.3 1.8 7.2 WSW 0.0 1010.6
07:00 17.2 70 11.7 5.0 12.2 WNW 0.0 1010.8
07:10 16.9 68 11.0 3.7 12.2 NW 0.0 1010.2
07:20 16.8 68 10.9 2.1 6.1 W 0.0 1010.6
07:30 16.8 67 10.6 4.1 11.2 W 0.0 1010.8
07:40 16.8 66 10.4 1.8 6.1 NNW 0.0 1010.7
07:50 16.7 67 10.5 2.6 5.0 NW 0.0 1010.8
08:00 16.8 68 10.9 3.6 7.2 NE 0.0 1010.6
08:10 16.9 69 11.2 5.1 11.2 NNE 0.0 1010.5
08:20 17.1 71 11.8 5.6 11.2 NW 0.0 1010.6
08:30 17.4 74 12.7 7.7 15.8 NNW 0.0 1010.4
08:40 17.6 76 13.3 10.2 20.9 NNE 0.0 1010.6
08:50 17.7 76 13.4 10.2 20.9 NNW 0.0 1010.4
09:00 17.7 76 13.4 8.0 18.4 NNW 0.0 1010.6
09:10 17.7 75 13.2 9.6 19.4 N 0.0 1010.5
09:20 17.6 75 13.1 8.6 15.8 NNW 0.0 1010.4
09:30 17.7 75 13.2 7.4 14.8 NW 0.0 1010.5
09:40 17.8 74 13.1 7.1 15.8 NW 0.0 1010.3
09:50 17.8 72 12.7 8.4 18.4 N 0.0 1010.0
10:00 17.9 67 11.7 7.8 19.4 NNW 0.0 1009.8
10:10 18.0 63 10.9 8.6 17.3 NNW 0.0 1009.6
10:20 18.2 59 10.1 9.3 19.4 NW 0.0 1009.6
10:30 18.3 56 9.4 9.0 17.3 NW 0.0 1009.8
10:40 18.2 54 8.7 12.4 20.9 NW 0.0 1009.8
10:50 18.1 55 8.9 8.7 22.0 NW 0.0 1009.6
11:00 18.2 56 9.3 6.9 14.8 WNW 0.0 1009.1
11:10 18.2 57 9.6 6.9 13.3 NW 0.0 1009.6
11:20 18.2 56 9.3 9.3 22.0 NW 0.0 1009.6
11:30 18.1 50 7.5 7.2 13.3 NW 0.0 1009.6
11:40 18.0 47 6.5 5.4 11.2 NW 0.0 1010.0
11:50 18.5 48 7.3 3.1 14.8 NW 0.0 1009.6
12:00 18.6 49 7.7 7.2 15.8 NW 0.0 1009.8
12:10 18.8 53 9.0 12.2 23.4 NNW 0.0 1010.1
12:20 18.4 58 10.0 15.1 30.6 NW 0.0 1010.2
12:30 18.4 60 10.5 12.6 31.7 NNW 0.0 1010.1
12:40 18.1 56 9.2 20.4 41.8 NW 0.0 1010.4
12:50 18.0 54 8.6 17.4 34.2 WNW 0.0 1010.2
13:00 18.0 49 7.1 16.8 30.6 NW 0.0 1010.3
13:10 17.9 44 5.5 17.4 36.7 NNW 0.0 1010.6
13:20 17.9 42 4.8 19.7 40.3 N 0.0 1010.7
13:30 18.1 46 6.3 17.7 34.2 NNW 0.0 1010.4
13:40 18.8 46 6.9 18.4 37.8 NW 0.0 1010.4
13:50 19.2 42 6.0 19.5 45.4 NNW 0.0 1010.2
14:00 19.1 42 5.9 23.8 40.3 NNW 0.0 1010.2
14:10 19.2 42 6.0 18.5 36.7 N 0.0 1009.9
14:20 19.3 41 5.7 22.6 39.2 NW 0.0 1010.1
14:30 19.4 41 5.8 17.2 36.7 N 0.0 1009.9
14:40 19.5 40 5.6 14.9 42.8 NW 0.0 1009.7
14:50 19.7 40 5.7 14.0 34.2 NNW 0.0 1010.0
15:00 19.5 41 5.9 18.7 33.1 NNW 0.0 1009.9
15:10 19.7 41 6.1 16.7 34.2 NW 0.0 1009.8
15:20 19.7 41 6.1 16.4 39.2 NW 0.0 1009.8
15:30 19.7 40 5.7 17.0 37.8 NW 0.0 1009.8
15:40 19.6 41 6.0 15.8 29.5 N 0.0 1009.7
15:50 19.7 41 6.1 15.1 30.6 NNW 0.0 1009.7
16:00 19.6 41 6.0 15.5 28.1 NNW 0.0 1009.7
16:10 19.6 42 6.3 12.8 27.0 N 0.0 1009.7
16:20 19.5 42 6.3 15.1 39.2 NNW 0.0 1010.0
16:30 19.5 43 6.6 12.0 23.4 NW 0.0 1010.0
16:40 19.4 44 6.8 12.0 22.0 NNW 0.0 1010.2
16:50 19.3 43 6.4 14.0 31.7 NW 0.0 1010.2
17:00 19.2 44 6.7 10.5 23.4 NW 0.0 1010.3
17:10 19.0 44 6.5 12.6 24.5 NNW 0.0 1010.3
17:20 18.9 45 6.7 12.1 24.5 NNW 0.0 1010.5
17:30 18.8 45 6.6 12.1 20.9 NW 0.0 1010.6
17:40 18.6 45 6.4 11.1 28.1 NNW 0.0 1010.7
17:50 18.4 45 6.3 10.9 20.9 NNW 0.0 1010.8
18:00 18.3 46 6.5 9.6 18.4 NNW 0.0 1010.8
18:10 18.1 47 6.6 10.2 18.4 N 0.0 1010.7
18:20 17.8 49 7.0 9.9 19.4 NNW 0.0 1010.5
18:30 17.6 49 6.8 11.7 20.9 N 0.0 1010.5
18:40 17.3 50 6.8 11.5 19.4 N 0.0 1010.5
18:50 17.2 51 7.0 10.5 19.4 N 0.0 1010.5
19:00 17.0 51 6.8 10.4 23.4 NNE 0.0 1010.4
19:10 16.9 52 7.0 12.9 22.0 N 0.0 1010.5
19:20 16.7 52 6.8 13.0 23.4 N 0.0 1010.7
19:30 16.6 52 6.7 11.6 23.4 N 0.0 1010.9
19:40 16.4 52 6.5 13.0 24.5 N 0.0 1010.9
19:50 16.3 52 6.4 12.0 24.5 N 0.0 1010.9
20:00 16.2 52 6.3 12.0 19.4 N 0.0 1010.9
20:10 16.0 53 6.4 12.5 25.6 N 0.0 1011.0
20:20 15.9 54 6.6 11.7 23.4 N 0.0 1011.0
20:30 15.8 54 6.5 13.5 19.4 N 0.0 1011.1
20:40 15.7 54 6.4 13.0 22.0 NNW 0.0 1011.2
20:50 15.6 55 6.6 9.9 17.3 N 0.0 1011.2
21:00 15.5 55 6.5 10.7 22.0 N 0.0 1011.1
21:10 15.4 55 6.4 10.1 23.4 NNW 0.0 1011.2
21:20 15.3 55 6.3 9.9 20.9 NNW 0.0 1011.4
21:30 15.3 55 6.3 9.6 18.4 NNW 0.0 1011.5
21:40 15.2 55 6.2 10.6 19.4 N 0.0 1011.6
21:50 15.2 55 6.2 9.7 17.3 N 0.0 1011.6
22:00 15.1 55 6.1 9.3 20.9 N 0.0 1011.9
22:10 15.0 55 6.0 7.1 12.2 NE 0.0 1012.0
22:20 14.8 56 6.1 6.9 13.3 NNE 0.0 1012.1
22:30 14.7 57 6.3 6.6 12.2 NNE 0.0 1012.2
22:40 14.6 57 6.2 6.2 15.8 NNE 0.0 1012.2
22:50 14.6 57 6.2 7.2 13.3 NNE 0.0 1012.4
23:00 14.5 57 6.1 7.5 12.2 NNE 0.0 1012.3
23:10 14.5 57 6.1 8.1 14.8 N 0.0 1012.3
23:20 14.5 57 6.1 7.6 15.8 N 0.0 1012.3
23:30 14.4 56 5.7 8.3 13.3 N 0.0 1012.0
23:40 14.2 56 5.6 7.5 19.4 NNW 0.0 1011.8
23:50 14.2 56 5.6 9.5 14.8 NNE 0.0 1011.6